sensor_id;sensor_type;location;lat;lon;timestamp;P1;durP1;ratioP1;P2;durP2;ratioP2
67146;SDS011;54061;52.036;5.558;2023-04-25T00:01:54;3.47;;;1.27;;
67146;SDS011;54061;52.036;5.558;2023-04-25T00:04:21;1.60;;;0.77;;
67146;SDS011;54061;52.036;5.558;2023-04-25T00:06:47;4.20;;;1.13;;
67146;SDS011;54061;52.036;5.558;2023-04-25T00:09:13;3.13;;;0.75;;
67146;SDS011;54061;52.036;5.558;2023-04-25T00:11:38;3.63;;;0.85;;
67146;SDS011;54061;52.036;5.558;2023-04-25T00:14:05;3.95;;;1.17;;
67146;SDS011;54061;52.036;5.558;2023-04-25T00:16:31;2.28;;;0.80;;
67146;SDS011;54061;52.036;5.558;2023-04-25T00:18:59;2.28;;;0.80;;
67146;SDS011;54061;52.036;5.558;2023-04-25T00:21:24;2.95;;;1.00;;
67146;SDS011;54061;52.036;5.558;2023-04-25T00:23:51;3.22;;;1.13;;
67146;SDS011;54061;52.036;5.558;2023-04-25T00:26:17;2.17;;;0.90;;
67146;SDS011;54061;52.036;5.558;2023-04-25T00:28:43;4.03;;;1.08;;
67146;SDS011;54061;52.036;5.558;2023-04-25T00:31:08;4.47;;;1.00;;
67146;SDS011;54061;52.036;5.558;2023-04-25T00:33:34;4.28;;;1.20;;
67146;SDS011;54061;52.036;5.558;2023-04-25T00:36:00;4.30;;;1.23;;
67146;SDS011;54061;52.036;5.558;2023-04-25T00:38:25;2.50;;;0.90;;
67146;SDS011;54061;52.036;5.558;2023-04-25T00:40:51;2.85;;;1.13;;
67146;SDS011;54061;52.036;5.558;2023-04-25T00:43:17;5.93;;;1.30;;
67146;SDS011;54061;52.036;5.558;2023-04-25T00:45:43;2.90;;;1.17;;
67146;SDS011;54061;52.036;5.558;2023-04-25T00:48:11;2.58;;;1.00;;
67146;SDS011;54061;52.036;5.558;2023-04-25T00:50:38;3.35;;;1.10;;
67146;SDS011;54061;52.036;5.558;2023-04-25T00:53:04;3.25;;;0.90;;
67146;SDS011;54061;52.036;5.558;2023-04-25T00:55:30;4.20;;;1.00;;
67146;SDS011;54061;52.036;5.558;2023-04-25T00:57:56;3.97;;;1.13;;
67146;SDS011;54061;52.036;5.558;2023-04-25T01:00:22;2.28;;;0.90;;
67146;SDS011;54061;52.036;5.558;2023-04-25T01:02:48;5.50;;;1.23;;
67146;SDS011;54061;52.036;5.558;2023-04-25T01:05:14;5.03;;;1.15;;
67146;SDS011;54061;52.036;5.558;2023-04-25T01:07:40;3.03;;;1.10;;
67146;SDS011;54061;52.036;5.558;2023-04-25T01:10:06;3.92;;;1.10;;
67146;SDS011;54061;52.036;5.558;2023-04-25T01:12:32;5.55;;;1.52;;
67146;SDS011;54061;52.036;5.558;2023-04-25T01:14:57;3.28;;;1.00;;
67146;SDS011;54061;52.036;5.558;2023-04-25T01:17:23;8.63;;;1.40;;
67146;SDS011;54061;52.036;5.558;2023-04-25T01:19:49;4.90;;;1.20;;
67146;SDS011;54061;52.036;5.558;2023-04-25T01:22:15;4.95;;;1.30;;
67146;SDS011;54061;52.036;5.558;2023-04-25T01:24:42;3.92;;;1.25;;
67146;SDS011;54061;52.036;5.558;2023-04-25T01:27:07;3.15;;;1.25;;
67146;SDS011;54061;52.036;5.558;2023-04-25T01:29:34;5.57;;;1.20;;
67146;SDS011;54061;52.036;5.558;2023-04-25T01:32:01;4.07;;;1.20;;
67146;SDS011;54061;52.036;5.558;2023-04-25T01:34:27;4.38;;;1.45;;
67146;SDS011;54061;52.036;5.558;2023-04-25T01:36:53;3.92;;;1.30;;
67146;SDS011;54061;52.036;5.558;2023-04-25T01:39:19;6.78;;;1.67;;
67146;SDS011;54061;52.036;5.558;2023-04-25T01:41:45;4.93;;;1.50;;
67146;SDS011;54061;52.036;5.558;2023-04-25T01:44:12;4.15;;;1.20;;
67146;SDS011;54061;52.036;5.558;2023-04-25T01:46:38;6.18;;;1.98;;
67146;SDS011;54061;52.036;5.558;2023-04-25T01:49:04;5.72;;;1.15;;
67146;SDS011;54061;52.036;5.558;2023-04-25T01:51:30;3.60;;;1.00;;
67146;SDS011;54061;52.036;5.558;2023-04-25T01:53:56;3.78;;;1.45;;
67146;SDS011;54061;52.036;5.558;2023-04-25T01:56:22;4.45;;;1.42;;
67146;SDS011;54061;52.036;5.558;2023-04-25T01:58:48;5.93;;;1.63;;
67146;SDS011;54061;52.036;5.558;2023-04-25T02:01:14;2.38;;;1.05;;
67146;SDS011;54061;52.036;5.558;2023-04-25T02:03:39;5.18;;;1.60;;
67146;SDS011;54061;52.036;5.558;2023-04-25T02:06:05;6.35;;;1.52;;
67146;SDS011;54061;52.036;5.558;2023-04-25T02:08:31;5.80;;;1.50;;
67146;SDS011;54061;52.036;5.558;2023-04-25T02:10:57;5.22;;;1.65;;
67146;SDS011;54061;52.036;5.558;2023-04-25T02:13:22;5.10;;;1.90;;
67146;SDS011;54061;52.036;5.558;2023-04-25T02:15:48;4.28;;;1.58;;
67146;SDS011;54061;52.036;5.558;2023-04-25T02:18:14;5.00;;;1.65;;
67146;SDS011;54061;52.036;5.558;2023-04-25T02:20:41;4.28;;;1.38;;
67146;SDS011;54061;52.036;5.558;2023-04-25T02:23:07;4.65;;;1.52;;
67146;SDS011;54061;52.036;5.558;2023-04-25T02:25:33;5.10;;;1.30;;
67146;SDS011;54061;52.036;5.558;2023-04-25T02:27:58;5.55;;;1.58;;
67146;SDS011;54061;52.036;5.558;2023-04-25T02:30:24;5.68;;;1.52;;
67146;SDS011;54061;52.036;5.558;2023-04-25T02:32:49;5.05;;;1.50;;
67146;SDS011;54061;52.036;5.558;2023-04-25T02:35:15;5.32;;;1.60;;
67146;SDS011;54061;52.036;5.558;2023-04-25T02:37:41;3.97;;;1.50;;
67146;SDS011;54061;52.036;5.558;2023-04-25T02:40:07;5.47;;;2.13;;
67146;SDS011;54061;52.036;5.558;2023-04-25T02:42:33;5.13;;;1.40;;
67146;SDS011;54061;52.036;5.558;2023-04-25T02:44:59;4.90;;;1.23;;
67146;SDS011;54061;52.036;5.558;2023-04-25T02:47:24;6.55;;;1.17;;
67146;SDS011;54061;52.036;5.558;2023-04-25T02:49:50;5.03;;;1.38;;
67146;SDS011;54061;52.036;5.558;2023-04-25T02:52:15;10.20;;;1.45;;
67146;SDS011;54061;52.036;5.558;2023-04-25T02:54:41;4.85;;;1.35;;
67146;SDS011;54061;52.036;5.558;2023-04-25T02:57:07;5.72;;;1.80;;
67146;SDS011;54061;52.036;5.558;2023-04-25T02:59:33;5.63;;;1.60;;
67146;SDS011;54061;52.036;5.558;2023-04-25T03:01:59;6.75;;;2.25;;
67146;SDS011;54061;52.036;5.558;2023-04-25T03:04:24;4.53;;;1.40;;
67146;SDS011;54061;52.036;5.558;2023-04-25T03:06:50;10.30;;;1.80;;
67146;SDS011;54061;52.036;5.558;2023-04-25T03:09:16;5.38;;;1.50;;
67146;SDS011;54061;52.036;5.558;2023-04-25T03:11:41;6.20;;;1.50;;
67146;SDS011;54061;52.036;5.558;2023-04-25T03:14:09;4.70;;;1.60;;
67146;SDS011;54061;52.036;5.558;2023-04-25T03:16:35;4.43;;;1.70;;
67146;SDS011;54061;52.036;5.558;2023-04-25T03:19:01;6.97;;;1.50;;
67146;SDS011;54061;52.036;5.558;2023-04-25T03:21:27;7.43;;;1.45;;
67146;SDS011;54061;52.036;5.558;2023-04-25T03:23:53;5.82;;;1.50;;
67146;SDS011;54061;52.036;5.558;2023-04-25T03:26:19;3.58;;;1.58;;
67146;SDS011;54061;52.036;5.558;2023-04-25T03:28:44;4.97;;;1.55;;
67146;SDS011;54061;52.036;5.558;2023-04-25T03:31:10;4.07;;;1.45;;
67146;SDS011;54061;52.036;5.558;2023-04-25T03:33:35;6.35;;;1.40;;
67146;SDS011;54061;52.036;5.558;2023-04-25T03:36:01;3.78;;;1.20;;
67146;SDS011;54061;52.036;5.558;2023-04-25T03:38:27;5.85;;;1.20;;
67146;SDS011;54061;52.036;5.558;2023-04-25T03:40:52;6.15;;;1.38;;
67146;SDS011;54061;52.036;5.558;2023-04-25T03:43:18;3.45;;;1.40;;
67146;SDS011;54061;52.036;5.558;2023-04-25T03:45:44;6.20;;;1.33;;
67146;SDS011;54061;52.036;5.558;2023-04-25T03:48:10;5.75;;;1.35;;
67146;SDS011;54061;52.036;5.558;2023-04-25T03:50:36;5.80;;;1.42;;
67146;SDS011;54061;52.036;5.558;2023-04-25T03:53:02;7.78;;;1.48;;
67146;SDS011;54061;52.036;5.558;2023-04-25T03:55:27;6.82;;;1.60;;
67146;SDS011;54061;52.036;5.558;2023-04-25T03:57:53;6.70;;;1.45;;
67146;SDS011;54061;52.036;5.558;2023-04-25T04:00:18;4.60;;;1.20;;
67146;SDS011;54061;52.036;5.558;2023-04-25T04:02:44;4.28;;;1.30;;
67146;SDS011;54061;52.036;5.558;2023-04-25T04:05:09;4.93;;;1.50;;
67146;SDS011;54061;52.036;5.558;2023-04-25T04:07:35;4.70;;;1.48;;
67146;SDS011;54061;52.036;5.558;2023-04-25T04:10:05;6.47;;;1.52;;
67146;SDS011;54061;52.036;5.558;2023-04-25T04:12:32;5.32;;;1.05;;
67146;SDS011;54061;52.036;5.558;2023-04-25T04:14:58;6.65;;;1.73;;
67146;SDS011;54061;52.036;5.558;2023-04-25T04:17:23;4.88;;;1.25;;
67146;SDS011;54061;52.036;5.558;2023-04-25T04:19:50;4.68;;;1.27;;
67146;SDS011;54061;52.036;5.558;2023-04-25T04:22:15;5.47;;;1.30;;
67146;SDS011;54061;52.036;5.558;2023-04-25T04:24:41;3.88;;;1.30;;
67146;SDS011;54061;52.036;5.558;2023-04-25T04:27:08;2.78;;;1.10;;
67146;SDS011;54061;52.036;5.558;2023-04-25T04:29:35;3.97;;;1.25;;
67146;SDS011;54061;52.036;5.558;2023-04-25T04:32:01;4.63;;;1.23;;
67146;SDS011;54061;52.036;5.558;2023-04-25T04:34:28;5.20;;;1.35;;
67146;SDS011;54061;52.036;5.558;2023-04-25T04:36:53;2.80;;;1.30;;
67146;SDS011;54061;52.036;5.558;2023-04-25T04:39:19;3.08;;;1.40;;
67146;SDS011;54061;52.036;5.558;2023-04-25T04:41:46;4.30;;;1.40;;
67146;SDS011;54061;52.036;5.558;2023-04-25T04:44:11;6.68;;;1.38;;
67146;SDS011;54061;52.036;5.558;2023-04-25T04:46:37;5.07;;;1.30;;
67146;SDS011;54061;52.036;5.558;2023-04-25T04:49:06;4.90;;;1.30;;
67146;SDS011;54061;52.036;5.558;2023-04-25T04:51:35;4.88;;;1.38;;
67146;SDS011;54061;52.036;5.558;2023-04-25T04:54:01;4.60;;;0.95;;
67146;SDS011;54061;52.036;5.558;2023-04-25T04:56:28;4.20;;;1.30;;
67146;SDS011;54061;52.036;5.558;2023-04-25T04:58:55;3.25;;;0.80;;
67146;SDS011;54061;52.036;5.558;2023-04-25T05:01:21;5.22;;;1.20;;
67146;SDS011;54061;52.036;5.558;2023-04-25T05:03:47;6.40;;;1.25;;
67146;SDS011;54061;52.036;5.558;2023-04-25T05:06:12;3.95;;;1.15;;
67146;SDS011;54061;52.036;5.558;2023-04-25T05:08:38;3.55;;;1.33;;
67146;SDS011;54061;52.036;5.558;2023-04-25T05:11:03;2.90;;;1.23;;
67146;SDS011;54061;52.036;5.558;2023-04-25T05:13:29;4.60;;;1.10;;
67146;SDS011;54061;52.036;5.558;2023-04-25T05:15:55;7.82;;;1.35;;
67146;SDS011;54061;52.036;5.558;2023-04-25T05:18:20;5.13;;;1.23;;
67146;SDS011;54061;52.036;5.558;2023-04-25T05:20:46;4.65;;;1.15;;
67146;SDS011;54061;52.036;5.558;2023-04-25T05:23:11;3.58;;;1.20;;
67146;SDS011;54061;52.036;5.558;2023-04-25T05:25:37;3.95;;;1.38;;
67146;SDS011;54061;52.036;5.558;2023-04-25T05:28:02;4.88;;;1.20;;
67146;SDS011;54061;52.036;5.558;2023-04-25T05:30:28;4.32;;;1.27;;
67146;SDS011;54061;52.036;5.558;2023-04-25T05:32:54;3.72;;;1.00;;
67146;SDS011;54061;52.036;5.558;2023-04-25T05:35:19;3.97;;;1.40;;
67146;SDS011;54061;52.036;5.558;2023-04-25T05:37:45;7.07;;;1.30;;
67146;SDS011;54061;52.036;5.558;2023-04-25T05:40:10;3.78;;;1.15;;
67146;SDS011;54061;52.036;5.558;2023-04-25T05:42:36;5.63;;;1.17;;
67146;SDS011;54061;52.036;5.558;2023-04-25T05:45:02;4.00;;;1.20;;
67146;SDS011;54061;52.036;5.558;2023-04-25T05:47:28;3.22;;;1.13;;
67146;SDS011;54061;52.036;5.558;2023-04-25T05:49:53;5.05;;;1.00;;
67146;SDS011;54061;52.036;5.558;2023-04-25T05:52:19;4.30;;;1.27;;
67146;SDS011;54061;52.036;5.558;2023-04-25T05:54:44;4.78;;;1.20;;
67146;SDS011;54061;52.036;5.558;2023-04-25T05:57:18;3.50;;;1.13;;
67146;SDS011;54061;52.036;5.558;2023-04-25T05:59:47;5.25;;;1.10;;
67146;SDS011;54061;52.036;5.558;2023-04-25T06:02:13;4.95;;;1.10;;
67146;SDS011;54061;52.036;5.558;2023-04-25T06:04:39;4.30;;;1.10;;
67146;SDS011;54061;52.036;5.558;2023-04-25T06:07:04;5.45;;;1.17;;
67146;SDS011;54061;52.036;5.558;2023-04-25T06:09:30;2.95;;;1.20;;
67146;SDS011;54061;52.036;5.558;2023-04-25T06:11:55;5.18;;;0.90;;
67146;SDS011;54061;52.036;5.558;2023-04-25T06:14:21;4.85;;;1.33;;
67146;SDS011;54061;52.036;5.558;2023-04-25T06:16:46;3.90;;;0.98;;
67146;SDS011;54061;52.036;5.558;2023-04-25T06:19:11;2.72;;;0.82;;
67146;SDS011;54061;52.036;5.558;2023-04-25T06:21:37;2.50;;;0.98;;
67146;SDS011;54061;52.036;5.558;2023-04-25T06:24:03;3.83;;;1.20;;
67146;SDS011;54061;52.036;5.558;2023-04-25T06:26:28;4.32;;;1.20;;
67146;SDS011;54061;52.036;5.558;2023-04-25T06:28:54;5.80;;;1.30;;
67146;SDS011;54061;52.036;5.558;2023-04-25T06:31:19;4.18;;;1.00;;
67146;SDS011;54061;52.036;5.558;2023-04-25T06:33:45;4.35;;;1.05;;
67146;SDS011;54061;52.036;5.558;2023-04-25T06:36:11;1.95;;;0.80;;
67146;SDS011;54061;52.036;5.558;2023-04-25T06:38:36;3.28;;;1.00;;
67146;SDS011;54061;52.036;5.558;2023-04-25T06:41:02;1.45;;;0.73;;
67146;SDS011;54061;52.036;5.558;2023-04-25T06:43:27;4.53;;;1.00;;
67146;SDS011;54061;52.036;5.558;2023-04-25T06:45:53;3.33;;;0.95;;
67146;SDS011;54061;52.036;5.558;2023-04-25T06:48:19;2.95;;;0.75;;
67146;SDS011;54061;52.036;5.558;2023-04-25T06:50:44;3.28;;;1.08;;
67146;SDS011;54061;52.036;5.558;2023-04-25T06:53:10;4.03;;;1.00;;
67146;SDS011;54061;52.036;5.558;2023-04-25T06:55:36;5.60;;;1.10;;
67146;SDS011;54061;52.036;5.558;2023-04-25T06:58:02;4.43;;;1.20;;
67146;SDS011;54061;52.036;5.558;2023-04-25T07:00:28;2.88;;;1.00;;
67146;SDS011;54061;52.036;5.558;2023-04-25T07:02:53;2.75;;;0.90;;
67146;SDS011;54061;52.036;5.558;2023-04-25T07:05:19;3.90;;;1.00;;
67146;SDS011;54061;52.036;5.558;2023-04-25T07:07:45;2.25;;;0.82;;
67146;SDS011;54061;52.036;5.558;2023-04-25T07:10:11;2.22;;;0.80;;
67146;SDS011;54061;52.036;5.558;2023-04-25T07:12:36;4.95;;;1.10;;
67146;SDS011;54061;52.036;5.558;2023-04-25T07:15:02;2.63;;;0.75;;
67146;SDS011;54061;52.036;5.558;2023-04-25T07:17:30;4.63;;;0.93;;
67146;SDS011;54061;52.036;5.558;2023-04-25T07:19:56;4.20;;;1.30;;
67146;SDS011;54061;52.036;5.558;2023-04-25T07:22:22;4.28;;;1.33;;
67146;SDS011;54061;52.036;5.558;2023-04-25T07:24:47;4.07;;;1.45;;
67146;SDS011;54061;52.036;5.558;2023-04-25T07:27:13;4.22;;;1.30;;
67146;SDS011;54061;52.036;5.558;2023-04-25T07:29:39;7.30;;;1.80;;
67146;SDS011;54061;52.036;5.558;2023-04-25T07:32:04;4.13;;;1.35;;
67146;SDS011;54061;52.036;5.558;2023-04-25T07:34:30;4.63;;;1.33;;
67146;SDS011;54061;52.036;5.558;2023-04-25T07:36:56;3.78;;;1.30;;
67146;SDS011;54061;52.036;5.558;2023-04-25T07:39:22;3.80;;;1.58;;
67146;SDS011;54061;52.036;5.558;2023-04-25T07:41:48;6.22;;;1.33;;
67146;SDS011;54061;52.036;5.558;2023-04-25T07:44:13;3.92;;;1.35;;
67146;SDS011;54061;52.036;5.558;2023-04-25T07:46:39;4.05;;;1.20;;
67146;SDS011;54061;52.036;5.558;2023-04-25T07:49:05;3.40;;;1.20;;
67146;SDS011;54061;52.036;5.558;2023-04-25T07:51:30;4.03;;;1.40;;
67146;SDS011;54061;52.036;5.558;2023-04-25T07:53:56;2.33;;;1.40;;
67146;SDS011;54061;52.036;5.558;2023-04-25T07:56:22;3.28;;;1.48;;
67146;SDS011;54061;52.036;5.558;2023-04-25T07:58:47;3.30;;;1.42;;
67146;SDS011;54061;52.036;5.558;2023-04-25T08:01:12;3.75;;;1.25;;
67146;SDS011;54061;52.036;5.558;2023-04-25T08:03:38;3.15;;;1.30;;
67146;SDS011;54061;52.036;5.558;2023-04-25T08:06:04;3.95;;;1.20;;
67146;SDS011;54061;52.036;5.558;2023-04-25T08:08:30;3.65;;;1.25;;
67146;SDS011;54061;52.036;5.558;2023-04-25T08:10:55;5.15;;;1.45;;
67146;SDS011;54061;52.036;5.558;2023-04-25T08:13:21;6.10;;;1.20;;
67146;SDS011;54061;52.036;5.558;2023-04-25T08:15:46;5.60;;;1.60;;
67146;SDS011;54061;52.036;5.558;2023-04-25T08:18:12;6.13;;;1.52;;
67146;SDS011;54061;52.036;5.558;2023-04-25T08:20:37;8.52;;;1.42;;
67146;SDS011;54061;52.036;5.558;2023-04-25T08:23:03;4.22;;;1.48;;
67146;SDS011;54061;52.036;5.558;2023-04-25T08:25:28;4.22;;;1.27;;
67146;SDS011;54061;52.036;5.558;2023-04-25T08:27:54;5.10;;;1.48;;
67146;SDS011;54061;52.036;5.558;2023-04-25T08:30:20;3.40;;;1.15;;
67146;SDS011;54061;52.036;5.558;2023-04-25T08:32:46;3.65;;;1.23;;
67146;SDS011;54061;52.036;5.558;2023-04-25T08:35:11;8.30;;;1.50;;
67146;SDS011;54061;52.036;5.558;2023-04-25T08:37:37;4.95;;;1.42;;
67146;SDS011;54061;52.036;5.558;2023-04-25T08:40:03;3.17;;;1.10;;
67146;SDS011;54061;52.036;5.558;2023-04-25T08:42:32;2.75;;;1.10;;
67146;SDS011;54061;52.036;5.558;2023-04-25T08:44:59;2.65;;;0.90;;
67146;SDS011;54061;52.036;5.558;2023-04-25T08:47:26;3.13;;;1.02;;
67146;SDS011;54061;52.036;5.558;2023-04-25T08:49:53;1.80;;;0.90;;
67146;SDS011;54061;52.036;5.558;2023-04-25T08:52:23;5.00;;;1.10;;
67146;SDS011;54061;52.036;5.558;2023-04-25T08:54:49;5.85;;;1.35;;
67146;SDS011;54061;52.036;5.558;2023-04-25T08:57:17;3.50;;;1.13;;
67146;SDS011;54061;52.036;5.558;2023-04-25T08:59:43;1.38;;;0.90;;
67146;SDS011;54061;52.036;5.558;2023-04-25T09:02:11;3.67;;;1.20;;
67146;SDS011;54061;52.036;5.558;2023-04-25T09:04:42;4.63;;;1.27;;
67146;SDS011;54061;52.036;5.558;2023-04-25T09:07:08;3.67;;;1.15;;
67146;SDS011;54061;52.036;5.558;2023-04-25T09:09:34;2.05;;;0.95;;
67146;SDS011;54061;52.036;5.558;2023-04-25T09:12:00;2.70;;;1.00;;
67146;SDS011;54061;52.036;5.558;2023-04-25T09:14:26;2.55;;;0.88;;
67146;SDS011;54061;52.036;5.558;2023-04-25T09:19:28;3.22;;;0.80;;
67146;SDS011;54061;52.036;5.558;2023-04-25T09:22:00;1.77;;;0.82;;
67146;SDS011;54061;52.036;5.558;2023-04-25T09:24:39;2.67;;;0.90;;
67146;SDS011;54061;52.036;5.558;2023-04-25T09:27:11;1.95;;;0.80;;
67146;SDS011;54061;52.036;5.558;2023-04-25T09:29:39;3.65;;;0.95;;
67146;SDS011;54061;52.036;5.558;2023-04-25T09:34:40;1.42;;;0.80;;
67146;SDS011;54061;52.036;5.558;2023-04-25T09:37:16;5.13;;;1.10;;
67146;SDS011;54061;52.036;5.558;2023-04-25T09:39:58;1.45;;;0.80;;
67146;SDS011;54061;52.036;5.558;2023-04-25T09:42:28;3.72;;;1.10;;
67146;SDS011;54061;52.036;5.558;2023-04-25T09:44:56;2.75;;;1.05;;
67146;SDS011;54061;52.036;5.558;2023-04-25T09:47:23;2.78;;;0.90;;
67146;SDS011;54061;52.036;5.558;2023-04-25T09:49:50;2.88;;;0.98;;
67146;SDS011;54061;52.036;5.558;2023-04-25T09:52:17;4.05;;;1.13;;
67146;SDS011;54061;52.036;5.558;2023-04-25T09:54:47;2.78;;;0.90;;
67146;SDS011;54061;52.036;5.558;2023-04-25T09:57:24;2.13;;;1.00;;
67146;SDS011;54061;52.036;5.558;2023-04-25T09:59:51;1.77;;;0.80;;
67146;SDS011;54061;52.036;5.558;2023-04-25T10:02:18;3.88;;;0.98;;
67146;SDS011;54061;52.036;5.558;2023-04-25T10:04:49;2.65;;;0.75;;
67146;SDS011;54061;52.036;5.558;2023-04-25T10:07:17;3.38;;;1.20;;
67146;SDS011;54061;52.036;5.558;2023-04-25T10:09:45;2.00;;;0.70;;
67146;SDS011;54061;52.036;5.558;2023-04-25T10:12:13;3.55;;;1.10;;
67146;SDS011;54061;52.036;5.558;2023-04-25T10:14:38;2.42;;;0.70;;
67146;SDS011;54061;52.036;5.558;2023-04-25T10:17:05;1.58;;;0.63;;
67146;SDS011;54061;52.036;5.558;2023-04-25T10:19:32;2.40;;;0.88;;
67146;SDS011;54061;52.036;5.558;2023-04-25T10:22:14;3.80;;;0.77;;
67146;SDS011;54061;52.036;5.558;2023-04-25T10:24:43;1.35;;;0.70;;
67146;SDS011;54061;52.036;5.558;2023-04-25T10:27:11;5.82;;;0.93;;
67146;SDS011;54061;52.036;5.558;2023-04-25T10:29:37;2.95;;;0.85;;
67146;SDS011;54061;52.036;5.558;2023-04-25T10:32:03;2.35;;;0.93;;
67146;SDS011;54061;52.036;5.558;2023-04-25T10:34:41;2.70;;;0.68;;
67146;SDS011;54061;52.036;5.558;2023-04-25T10:37:09;2.55;;;0.93;;
67146;SDS011;54061;52.036;5.558;2023-04-25T10:39:35;2.65;;;0.80;;
67146;SDS011;54061;52.036;5.558;2023-04-25T10:42:06;2.17;;;0.70;;
67146;SDS011;54061;52.036;5.558;2023-04-25T10:44:33;4.10;;;0.90;;
67146;SDS011;54061;52.036;5.558;2023-04-25T10:47:00;2.10;;;0.60;;
67146;SDS011;54061;52.036;5.558;2023-04-25T10:49:30;1.92;;;0.68;;
67146;SDS011;54061;52.036;5.558;2023-04-25T10:52:16;2.65;;;0.70;;
67146;SDS011;54061;52.036;5.558;2023-04-25T10:54:51;1.27;;;0.75;;
67146;SDS011;54061;52.036;5.558;2023-04-25T10:59:59;1.52;;;0.70;;
67146;SDS011;54061;52.036;5.558;2023-04-25T11:02:40;1.75;;;0.73;;
67146;SDS011;54061;52.036;5.558;2023-04-25T11:05:22;1.75;;;0.70;;
67146;SDS011;54061;52.036;5.558;2023-04-25T11:07:53;2.65;;;0.63;;
67146;SDS011;54061;52.036;5.558;2023-04-25T11:10:24;3.65;;;0.75;;
67146;SDS011;54061;52.036;5.558;2023-04-25T11:12:54;3.13;;;0.82;;
67146;SDS011;54061;52.036;5.558;2023-04-25T11:15:20;2.47;;;0.70;;
67146;SDS011;54061;52.036;5.558;2023-04-25T11:17:46;2.65;;;0.80;;
67146;SDS011;54061;52.036;5.558;2023-04-25T11:20:12;1.30;;;0.57;;
67146;SDS011;54061;52.036;5.558;2023-04-25T11:22:38;3.80;;;0.80;;
67146;SDS011;54061;52.036;5.558;2023-04-25T11:25:07;5.70;;;0.80;;
67146;SDS011;54061;52.036;5.558;2023-04-25T11:27:36;4.13;;;0.80;;
67146;SDS011;54061;52.036;5.558;2023-04-25T11:30:18;1.60;;;0.70;;
67146;SDS011;54061;52.036;5.558;2023-04-25T11:32:45;2.35;;;0.80;;
67146;SDS011;54061;52.036;5.558;2023-04-25T11:35:11;2.45;;;0.70;;
67146;SDS011;54061;52.036;5.558;2023-04-25T11:37:40;2.53;;;0.60;;
67146;SDS011;54061;52.036;5.558;2023-04-25T11:40:06;1.67;;;0.70;;
67146;SDS011;54061;52.036;5.558;2023-04-25T11:42:33;1.80;;;0.80;;
67146;SDS011;54061;52.036;5.558;2023-04-25T11:44:59;1.67;;;0.63;;
67146;SDS011;54061;52.036;5.558;2023-04-25T11:47:31;1.67;;;0.60;;
67146;SDS011;54061;52.036;5.558;2023-04-25T11:50:01;1.70;;;0.77;;
67146;SDS011;54061;52.036;5.558;2023-04-25T11:52:44;1.45;;;0.63;;
67146;SDS011;54061;52.036;5.558;2023-04-25T11:55:15;3.10;;;0.68;;
67146;SDS011;54061;52.036;5.558;2023-04-25T11:57:43;3.35;;;0.70;;
67146;SDS011;54061;52.036;5.558;2023-04-25T12:00:11;1.35;;;0.70;;
67146;SDS011;54061;52.036;5.558;2023-04-25T12:02:46;2.90;;;0.80;;
67146;SDS011;54061;52.036;5.558;2023-04-25T12:05:15;4.05;;;0.82;;
67146;SDS011;54061;52.036;5.558;2023-04-25T12:07:41;2.47;;;0.90;;
67146;SDS011;54061;52.036;5.558;2023-04-25T12:10:08;1.80;;;0.90;;
67146;SDS011;54061;52.036;5.558;2023-04-25T12:12:36;3.60;;;0.80;;
67146;SDS011;54061;52.036;5.558;2023-04-25T12:15:15;2.25;;;0.65;;
67146;SDS011;54061;52.036;5.558;2023-04-25T12:17:44;2.78;;;0.95;;
67146;SDS011;54061;52.036;5.558;2023-04-25T12:20:18;1.80;;;0.63;;
67146;SDS011;54061;52.036;5.558;2023-04-25T12:22:45;2.78;;;0.90;;
67146;SDS011;54061;52.036;5.558;2023-04-25T12:25:12;1.85;;;0.82;;
67146;SDS011;54061;52.036;5.558;2023-04-25T12:27:38;4.13;;;1.00;;
67146;SDS011;54061;52.036;5.558;2023-04-25T12:30:07;2.40;;;0.50;;
67146;SDS011;54061;52.036;5.558;2023-04-25T12:32:33;2.33;;;0.80;;
67146;SDS011;54061;52.036;5.558;2023-04-25T12:34:59;2.35;;;0.52;;
67146;SDS011;54061;52.036;5.558;2023-04-25T12:37:24;3.28;;;0.85;;
67146;SDS011;54061;52.036;5.558;2023-04-25T12:39:50;1.15;;;0.60;;
67146;SDS011;54061;52.036;5.558;2023-04-25T12:42:16;2.92;;;0.75;;
67146;SDS011;54061;52.036;5.558;2023-04-25T12:44:41;1.15;;;0.45;;
67146;SDS011;54061;52.036;5.558;2023-04-25T12:47:07;2.38;;;0.68;;
67146;SDS011;54061;52.036;5.558;2023-04-25T12:49:32;2.05;;;0.57;;
67146;SDS011;54061;52.036;5.558;2023-04-25T12:51:58;2.92;;;0.90;;
67146;SDS011;54061;52.036;5.558;2023-04-25T12:54:23;1.17;;;0.50;;
67146;SDS011;54061;52.036;5.558;2023-04-25T12:56:50;2.95;;;0.70;;
67146;SDS011;54061;52.036;5.558;2023-04-25T12:59:16;1.05;;;0.63;;
67146;SDS011;54061;52.036;5.558;2023-04-25T13:01:41;2.70;;;0.73;;
67146;SDS011;54061;52.036;5.558;2023-04-25T13:04:07;1.95;;;0.70;;
67146;SDS011;54061;52.036;5.558;2023-04-25T13:06:33;2.28;;;0.60;;
67146;SDS011;54061;52.036;5.558;2023-04-25T13:08:58;2.85;;;0.60;;
67146;SDS011;54061;52.036;5.558;2023-04-25T13:11:24;3.42;;;0.80;;
67146;SDS011;54061;52.036;5.558;2023-04-25T13:13:49;2.55;;;0.60;;
67146;SDS011;54061;52.036;5.558;2023-04-25T13:16:15;1.35;;;0.60;;
67146;SDS011;54061;52.036;5.558;2023-04-25T13:18:41;1.83;;;0.52;;
67146;SDS011;54061;52.036;5.558;2023-04-25T13:21:06;2.85;;;0.80;;
67146;SDS011;54061;52.036;5.558;2023-04-25T13:23:33;1.25;;;0.80;;
67146;SDS011;54061;52.036;5.558;2023-04-25T13:25:59;2.90;;;0.65;;
67146;SDS011;54061;52.036;5.558;2023-04-25T13:28:26;1.90;;;0.60;;
67146;SDS011;54061;52.036;5.558;2023-04-25T13:30:52;3.17;;;0.70;;
67146;SDS011;54061;52.036;5.558;2023-04-25T13:33:18;1.42;;;0.60;;
67146;SDS011;54061;52.036;5.558;2023-04-25T13:35:45;3.13;;;0.82;;
67146;SDS011;54061;52.036;5.558;2023-04-25T13:38:12;4.60;;;0.57;;
67146;SDS011;54061;52.036;5.558;2023-04-25T13:40:38;2.38;;;0.43;;
67146;SDS011;54061;52.036;5.558;2023-04-25T13:43:04;2.15;;;0.63;;
67146;SDS011;54061;52.036;5.558;2023-04-25T13:45:31;1.77;;;0.60;;
67146;SDS011;54061;52.036;5.558;2023-04-25T13:47:57;3.90;;;0.70;;
67146;SDS011;54061;52.036;5.558;2023-04-25T13:50:22;2.83;;;0.50;;
67146;SDS011;54061;52.036;5.558;2023-04-25T13:52:48;8.93;;;0.63;;
67146;SDS011;54061;52.036;5.558;2023-04-25T13:55:13;3.53;;;0.65;;
67146;SDS011;54061;52.036;5.558;2023-04-25T13:57:39;3.65;;;0.73;;
67146;SDS011;54061;52.036;5.558;2023-04-25T14:00:05;2.28;;;0.63;;
67146;SDS011;54061;52.036;5.558;2023-04-25T14:02:34;1.05;;;0.50;;
67146;SDS011;54061;52.036;5.558;2023-04-25T14:05:00;1.45;;;0.60;;
67146;SDS011;54061;52.036;5.558;2023-04-25T14:07:27;2.83;;;0.60;;
67146;SDS011;54061;52.036;5.558;2023-04-25T14:09:52;1.58;;;0.70;;
67146;SDS011;54061;52.036;5.558;2023-04-25T14:12:18;1.98;;;0.80;;
67146;SDS011;54061;52.036;5.558;2023-04-25T14:14:43;1.58;;;0.57;;
67146;SDS011;54061;52.036;5.558;2023-04-25T14:17:09;1.90;;;0.68;;
67146;SDS011;54061;52.036;5.558;2023-04-25T14:19:35;0.90;;;0.55;;
67146;SDS011;54061;52.036;5.558;2023-04-25T14:22:03;5.63;;;0.60;;
67146;SDS011;54061;52.036;5.558;2023-04-25T14:24:28;0.98;;;0.57;;
67146;SDS011;54061;52.036;5.558;2023-04-25T14:26:54;1.88;;;0.57;;
67146;SDS011;54061;52.036;5.558;2023-04-25T14:29:20;1.50;;;0.60;;
67146;SDS011;54061;52.036;5.558;2023-04-25T14:31:46;1.38;;;0.50;;
67146;SDS011;54061;52.036;5.558;2023-04-25T14:34:12;1.73;;;0.60;;
67146;SDS011;54061;52.036;5.558;2023-04-25T14:36:37;1.70;;;0.63;;
67146;SDS011;54061;52.036;5.558;2023-04-25T14:39:03;4.10;;;0.80;;
67146;SDS011;54061;52.036;5.558;2023-04-25T14:41:30;3.63;;;0.75;;
67146;SDS011;54061;52.036;5.558;2023-04-25T14:43:55;3.53;;;0.70;;
67146;SDS011;54061;52.036;5.558;2023-04-25T14:46:21;1.95;;;0.60;;
67146;SDS011;54061;52.036;5.558;2023-04-25T14:48:48;2.45;;;0.60;;
67146;SDS011;54061;52.036;5.558;2023-04-25T14:51:13;1.05;;;0.60;;
67146;SDS011;54061;52.036;5.558;2023-04-25T14:53:39;2.97;;;0.65;;